sensor_id;sensor_type;location;lat;lon;timestamp;P1;durP1;ratioP1;P2;durP2;ratioP2
7881;SDS011;3986;41.884;23.466;2023-01-23T00:02:07;36.13;;;19.30;;
7881;SDS011;3986;41.884;23.466;2023-01-23T00:04:34;20.97;;;14.77;;
7881;SDS011;3986;41.884;23.466;2023-01-23T00:07:01;35.30;;;19.23;;
7881;SDS011;3986;41.884;23.466;2023-01-23T00:09:30;34.67;;;19.80;;
7881;SDS011;3986;41.884;23.466;2023-01-23T00:11:57;34.30;;;18.70;;
7881;SDS011;3986;41.884;23.466;2023-01-23T00:14:23;31.87;;;14.97;;
7881;SDS011;3986;41.884;23.466;2023-01-23T00:16:50;41.00;;;14.67;;
7881;SDS011;3986;41.884;23.466;2023-01-23T00:19:17;39.97;;;18.77;;
7881;SDS011;3986;41.884;23.466;2023-01-23T00:21:44;34.00;;;16.03;;
7881;SDS011;3986;41.884;23.466;2023-01-23T00:24:11;29.53;;;13.40;;
7881;SDS011;3986;41.884;23.466;2023-01-23T00:26:40;26.23;;;12.93;;
7881;SDS011;3986;41.884;23.466;2023-01-23T00:29:07;24.07;;;11.47;;
7881;SDS011;3986;41.884;23.466;2023-01-23T00:31:35;12.87;;;10.30;;
7881;SDS011;3986;41.884;23.466;2023-01-23T00:34:04;22.97;;;12.17;;
7881;SDS011;3986;41.884;23.466;2023-01-23T00:36:33;23.70;;;13.00;;
7881;SDS011;3986;41.884;23.466;2023-01-23T00:39:01;26.63;;;12.63;;
7881;SDS011;3986;41.884;23.466;2023-01-23T00:41:30;26.10;;;11.33;;
7881;SDS011;3986;41.884;23.466;2023-01-23T00:43:59;22.20;;;12.10;;
7881;SDS011;3986;41.884;23.466;2023-01-23T00:46:26;23.70;;;11.67;;
7881;SDS011;3986;41.884;23.466;2023-01-23T00:48:53;31.63;;;13.37;;
7881;SDS011;3986;41.884;23.466;2023-01-23T00:51:19;24.07;;;10.87;;
7881;SDS011;3986;41.884;23.466;2023-01-23T00:53:46;22.93;;;10.73;;
7881;SDS011;3986;41.884;23.466;2023-01-23T00:56:13;25.60;;;10.73;;
7881;SDS011;3986;41.884;23.466;2023-01-23T00:58:40;29.10;;;10.90;;
7881;SDS011;3986;41.884;23.466;2023-01-23T01:01:08;19.90;;;9.67;;
7881;SDS011;3986;41.884;23.466;2023-01-23T01:03:35;22.00;;;10.10;;
7881;SDS011;3986;41.884;23.466;2023-01-23T01:06:02;18.50;;;9.53;;
7881;SDS011;3986;41.884;23.466;2023-01-23T01:08:29;22.37;;;10.50;;
7881;SDS011;3986;41.884;23.466;2023-01-23T01:10:56;19.97;;;10.13;;
7881;SDS011;3986;41.884;23.466;2023-01-23T01:13:23;26.03;;;11.57;;
7881;SDS011;3986;41.884;23.466;2023-01-23T01:15:50;34.83;;;11.47;;
7881;SDS011;3986;41.884;23.466;2023-01-23T01:18:20;28.63;;;10.27;;
7881;SDS011;3986;41.884;23.466;2023-01-23T01:20:48;26.60;;;10.27;;
7881;SDS011;3986;41.884;23.466;2023-01-23T01:23:15;24.17;;;9.90;;
7881;SDS011;3986;41.884;23.466;2023-01-23T01:25:42;24.73;;;10.47;;
7881;SDS011;3986;41.884;23.466;2023-01-23T01:28:09;22.30;;;9.13;;
7881;SDS011;3986;41.884;23.466;2023-01-23T01:30:36;20.63;;;9.13;;
7881;SDS011;3986;41.884;23.466;2023-01-23T01:33:03;16.10;;;8.77;;
7881;SDS011;3986;41.884;23.466;2023-01-23T01:35:32;15.13;;;8.20;;
7881;SDS011;3986;41.884;23.466;2023-01-23T01:37:59;16.70;;;8.17;;
7881;SDS011;3986;41.884;23.466;2023-01-23T01:40:28;15.57;;;6.10;;
7881;SDS011;3986;41.884;23.466;2023-01-23T01:42:58;16.20;;;7.13;;
7881;SDS011;3986;41.884;23.466;2023-01-23T01:48:41;15.73;;;8.80;;
7881;SDS011;3986;41.884;23.466;2023-01-23T01:51:15;20.23;;;8.57;;
7881;SDS011;3986;41.884;23.466;2023-01-23T01:53:45;21.60;;;8.83;;
7881;SDS011;3986;41.884;23.466;2023-01-23T01:56:14;21.80;;;9.33;;
7881;SDS011;3986;41.884;23.466;2023-01-23T01:58:45;17.40;;;8.07;;
7881;SDS011;3986;41.884;23.466;2023-01-23T02:01:14;20.40;;;7.57;;
7881;SDS011;3986;41.884;23.466;2023-01-23T02:03:41;19.57;;;8.57;;
7881;SDS011;3986;41.884;23.466;2023-01-23T02:06:10;17.23;;;8.60;;
7881;SDS011;3986;41.884;23.466;2023-01-23T02:08:40;18.03;;;8.60;;
7881;SDS011;3986;41.884;23.466;2023-01-23T02:11:12;17.50;;;7.70;;
7881;SDS011;3986;41.884;23.466;2023-01-23T02:13:41;12.43;;;7.33;;
7881;SDS011;3986;41.884;23.466;2023-01-23T02:16:09;13.37;;;7.53;;
7881;SDS011;3986;41.884;23.466;2023-01-23T02:18:38;14.90;;;7.77;;
7881;SDS011;3986;41.884;23.466;2023-01-23T02:21:09;17.57;;;7.73;;
7881;SDS011;3986;41.884;23.466;2023-01-23T02:23:41;14.57;;;7.13;;
7881;SDS011;3986;41.884;23.466;2023-01-23T02:26:19;17.83;;;7.23;;
7881;SDS011;3986;41.884;23.466;2023-01-23T02:28:49;23.30;;;8.00;;
7881;SDS011;3986;41.884;23.466;2023-01-23T02:31:17;18.53;;;7.97;;
7881;SDS011;3986;41.884;23.466;2023-01-23T02:33:49;21.37;;;8.57;;
7881;SDS011;3986;41.884;23.466;2023-01-23T02:36:18;16.70;;;7.97;;
7881;SDS011;3986;41.884;23.466;2023-01-23T02:38:48;16.97;;;8.50;;
7881;SDS011;3986;41.884;23.466;2023-01-23T02:41:22;19.47;;;7.63;;
7881;SDS011;3986;41.884;23.466;2023-01-23T02:43:53;21.17;;;7.90;;
7881;SDS011;3986;41.884;23.466;2023-01-23T02:46:22;16.50;;;6.57;;
7881;SDS011;3986;41.884;23.466;2023-01-23T02:48:49;11.63;;;6.00;;
7881;SDS011;3986;41.884;23.466;2023-01-23T02:51:16;17.67;;;7.17;;
7881;SDS011;3986;41.884;23.466;2023-01-23T02:53:45;10.17;;;6.10;;
7881;SDS011;3986;41.884;23.466;2023-01-23T02:56:12;10.37;;;6.27;;
7881;SDS011;3986;41.884;23.466;2023-01-23T02:58:41;17.57;;;7.50;;
7881;SDS011;3986;41.884;23.466;2023-01-23T03:01:26;22.63;;;9.20;;
7881;SDS011;3986;41.884;23.466;2023-01-23T03:03:53;24.00;;;8.90;;
7881;SDS011;3986;41.884;23.466;2023-01-23T03:06:28;20.20;;;7.73;;
7881;SDS011;3986;41.884;23.466;2023-01-23T03:09:00;18.23;;;9.73;;
7881;SDS011;3986;41.884;23.466;2023-01-23T03:11:29;21.63;;;10.10;;
7881;SDS011;3986;41.884;23.466;2023-01-23T03:13:59;20.20;;;8.10;;
7881;SDS011;3986;41.884;23.466;2023-01-23T03:16:25;21.50;;;7.67;;
7881;SDS011;3986;41.884;23.466;2023-01-23T03:18:52;17.80;;;6.70;;
7881;SDS011;3986;41.884;23.466;2023-01-23T03:21:21;20.07;;;6.80;;
7881;SDS011;3986;41.884;23.466;2023-01-23T03:23:48;19.47;;;8.57;;
7881;SDS011;3986;41.884;23.466;2023-01-23T03:26:15;20.87;;;8.87;;
7881;SDS011;3986;41.884;23.466;2023-01-23T03:28:42;13.63;;;8.63;;
7881;SDS011;3986;41.884;23.466;2023-01-23T03:31:27;21.30;;;9.53;;
7881;SDS011;3986;41.884;23.466;2023-01-23T03:33:54;16.17;;;8.43;;
7881;SDS011;3986;41.884;23.466;2023-01-23T03:36:21;29.40;;;13.87;;
7881;SDS011;3986;41.884;23.466;2023-01-23T03:38:48;35.57;;;21.73;;
7881;SDS011;3986;41.884;23.466;2023-01-23T03:41:32;31.93;;;19.40;;
7881;SDS011;3986;41.884;23.466;2023-01-23T03:43:59;20.80;;;8.43;;
7881;SDS011;3986;41.884;23.466;2023-01-23T03:46:25;18.27;;;6.57;;
7881;SDS011;3986;41.884;23.466;2023-01-23T03:48:54;19.73;;;7.80;;
7881;SDS011;3986;41.884;23.466;2023-01-23T03:51:20;19.17;;;8.47;;
7881;SDS011;3986;41.884;23.466;2023-01-23T03:53:47;14.13;;;8.00;;
7881;SDS011;3986;41.884;23.466;2023-01-23T03:56:14;19.60;;;8.47;;
7881;SDS011;3986;41.884;23.466;2023-01-23T03:58:41;14.03;;;7.37;;
7881;SDS011;3986;41.884;23.466;2023-01-23T04:01:08;16.57;;;7.27;;
7881;SDS011;3986;41.884;23.466;2023-01-23T04:03:35;24.00;;;7.27;;
7881;SDS011;3986;41.884;23.466;2023-01-23T04:06:03;13.03;;;6.67;;
7881;SDS011;3986;41.884;23.466;2023-01-23T04:08:30;17.17;;;7.57;;
7881;SDS011;3986;41.884;23.466;2023-01-23T04:11:00;21.27;;;8.93;;
7881;SDS011;3986;41.884;23.466;2023-01-23T04:13:28;24.77;;;14.00;;
7881;SDS011;3986;41.884;23.466;2023-01-23T04:15:54;38.83;;;15.33;;
7881;SDS011;3986;41.884;23.466;2023-01-23T04:18:21;26.10;;;12.50;;
7881;SDS011;3986;41.884;23.466;2023-01-23T04:20:48;22.43;;;11.57;;
7881;SDS011;3986;41.884;23.466;2023-01-23T04:23:16;30.00;;;15.23;;
7881;SDS011;3986;41.884;23.466;2023-01-23T04:25:43;22.80;;;16.83;;
7881;SDS011;3986;41.884;23.466;2023-01-23T04:28:10;22.80;;;14.93;;
7881;SDS011;3986;41.884;23.466;2023-01-23T04:30:37;28.23;;;15.40;;
7881;SDS011;3986;41.884;23.466;2023-01-23T04:33:04;23.60;;;12.17;;
7881;SDS011;3986;41.884;23.466;2023-01-23T04:35:30;24.50;;;11.20;;
7881;SDS011;3986;41.884;23.466;2023-01-23T04:37:57;28.37;;;12.47;;
7881;SDS011;3986;41.884;23.466;2023-01-23T04:40:25;20.50;;;12.90;;
7881;SDS011;3986;41.884;23.466;2023-01-23T04:42:52;33.97;;;21.60;;
7881;SDS011;3986;41.884;23.466;2023-01-23T04:45:20;16.03;;;9.07;;
7881;SDS011;3986;41.884;23.466;2023-01-23T04:47:46;20.83;;;10.63;;
7881;SDS011;3986;41.884;23.466;2023-01-23T04:50:13;18.47;;;13.57;;
7881;SDS011;3986;41.884;23.466;2023-01-23T04:52:40;22.90;;;15.63;;
7881;SDS011;3986;41.884;23.466;2023-01-23T04:55:08;27.37;;;15.47;;
7881;SDS011;3986;41.884;23.466;2023-01-23T04:57:37;32.57;;;14.83;;
7881;SDS011;3986;41.884;23.466;2023-01-23T05:00:04;29.37;;;16.50;;
7881;SDS011;3986;41.884;23.466;2023-01-23T05:02:32;26.37;;;16.47;;
7881;SDS011;3986;41.884;23.466;2023-01-23T05:04:59;35.77;;;20.97;;
7881;SDS011;3986;41.884;23.466;2023-01-23T05:07:25;35.47;;;22.30;;
7881;SDS011;3986;41.884;23.466;2023-01-23T05:09:52;30.70;;;22.27;;
7881;SDS011;3986;41.884;23.466;2023-01-23T05:12:19;28.63;;;22.90;;
7881;SDS011;3986;41.884;23.466;2023-01-23T05:14:47;38.10;;;24.97;;
7881;SDS011;3986;41.884;23.466;2023-01-23T05:17:14;30.23;;;20.00;;
7881;SDS011;3986;41.884;23.466;2023-01-23T05:19:41;33.13;;;20.70;;
7881;SDS011;3986;41.884;23.466;2023-01-23T05:22:08;36.10;;;19.37;;
7881;SDS011;3986;41.884;23.466;2023-01-23T05:24:34;35.17;;;19.17;;
7881;SDS011;3986;41.884;23.466;2023-01-23T05:27:01;33.37;;;21.47;;
7881;SDS011;3986;41.884;23.466;2023-01-23T05:29:28;38.27;;;27.33;;
7881;SDS011;3986;41.884;23.466;2023-01-23T05:31:56;38.20;;;27.93;;
7881;SDS011;3986;41.884;23.466;2023-01-23T05:34:23;34.53;;;28.33;;
7881;SDS011;3986;41.884;23.466;2023-01-23T05:36:50;42.80;;;30.23;;
7881;SDS011;3986;41.884;23.466;2023-01-23T05:39:17;37.23;;;26.60;;
7881;SDS011;3986;41.884;23.466;2023-01-23T05:41:43;36.90;;;25.13;;
7881;SDS011;3986;41.884;23.466;2023-01-23T05:44:10;49.30;;;25.47;;
7881;SDS011;3986;41.884;23.466;2023-01-23T05:46:37;35.73;;;22.70;;
7881;SDS011;3986;41.884;23.466;2023-01-23T05:49:05;38.47;;;26.47;;
7881;SDS011;3986;41.884;23.466;2023-01-23T05:51:32;45.40;;;30.73;;
7881;SDS011;3986;41.884;23.466;2023-01-23T05:53:59;82.80;;;55.20;;
7881;SDS011;3986;41.884;23.466;2023-01-23T05:56:27;85.60;;;65.80;;
7881;SDS011;3986;41.884;23.466;2023-01-23T05:58:54;66.67;;;58.90;;
7881;SDS011;3986;41.884;23.466;2023-01-23T06:01:21;70.87;;;54.07;;
7881;SDS011;3986;41.884;23.466;2023-01-23T06:03:48;72.93;;;60.47;;
7881;SDS011;3986;41.884;23.466;2023-01-23T06:06:16;87.63;;;58.97;;
7881;SDS011;3986;41.884;23.466;2023-01-23T06:08:42;67.47;;;45.90;;
7881;SDS011;3986;41.884;23.466;2023-01-23T06:11:09;57.90;;;42.30;;
7881;SDS011;3986;41.884;23.466;2023-01-23T06:13:37;66.30;;;47.13;;
7881;SDS011;3986;41.884;23.466;2023-01-23T06:16:04;68.47;;;50.80;;
7881;SDS011;3986;41.884;23.466;2023-01-23T06:18:31;89.40;;;58.00;;
7881;SDS011;3986;41.884;23.466;2023-01-23T06:20:58;70.57;;;50.40;;
7881;SDS011;3986;41.884;23.466;2023-01-23T06:23:27;57.03;;;48.90;;
7881;SDS011;3986;41.884;23.466;2023-01-23T06:25:57;103.57;;;76.87;;
7881;SDS011;3986;41.884;23.466;2023-01-23T06:28:25;109.87;;;72.63;;
7881;SDS011;3986;41.884;23.466;2023-01-23T06:30:51;86.77;;;65.80;;
7881;SDS011;3986;41.884;23.466;2023-01-23T06:33:18;85.90;;;66.57;;
7881;SDS011;3986;41.884;23.466;2023-01-23T06:35:45;91.67;;;68.00;;
7881;SDS011;3986;41.884;23.466;2023-01-23T06:38:12;80.03;;;57.97;;
7881;SDS011;3986;41.884;23.466;2023-01-23T06:40:40;61.97;;;42.67;;
7881;SDS011;3986;41.884;23.466;2023-01-23T06:43:07;58.13;;;40.33;;
7881;SDS011;3986;41.884;23.466;2023-01-23T06:45:33;56.93;;;40.90;;
7881;SDS011;3986;41.884;23.466;2023-01-23T06:48:00;57.23;;;35.53;;
7881;SDS011;3986;41.884;23.466;2023-01-23T06:50:27;61.07;;;43.70;;
7881;SDS011;3986;41.884;23.466;2023-01-23T06:52:54;85.50;;;64.27;;
7881;SDS011;3986;41.884;23.466;2023-01-23T06:55:20;91.80;;;61.33;;
7881;SDS011;3986;41.884;23.466;2023-01-23T06:57:48;100.07;;;70.03;;
7881;SDS011;3986;41.884;23.466;2023-01-23T07:00:15;80.93;;;60.47;;
7881;SDS011;3986;41.884;23.466;2023-01-23T07:02:43;91.97;;;63.27;;
7881;SDS011;3986;41.884;23.466;2023-01-23T07:05:10;80.70;;;55.63;;
7881;SDS011;3986;41.884;23.466;2023-01-23T07:07:36;69.30;;;48.87;;
7881;SDS011;3986;41.884;23.466;2023-01-23T07:10:03;84.97;;;70.47;;
7881;SDS011;3986;41.884;23.466;2023-01-23T07:12:31;92.47;;;67.77;;
7881;SDS011;3986;41.884;23.466;2023-01-23T07:14:59;99.93;;;74.30;;
7881;SDS011;3986;41.884;23.466;2023-01-23T07:17:26;87.30;;;66.57;;
7881;SDS011;3986;41.884;23.466;2023-01-23T07:19:53;80.37;;;68.93;;
7881;SDS011;3986;41.884;23.466;2023-01-23T07:22:20;87.63;;;77.07;;
7881;SDS011;3986;41.884;23.466;2023-01-23T07:24:48;111.80;;;99.13;;
7881;SDS011;3986;41.884;23.466;2023-01-23T07:27:15;95.73;;;85.80;;
7881;SDS011;3986;41.884;23.466;2023-01-23T07:29:42;131.87;;;82.73;;
7881;SDS011;3986;41.884;23.466;2023-01-23T07:32:10;79.73;;;62.97;;
7881;SDS011;3986;41.884;23.466;2023-01-23T07:34:37;98.67;;;59.27;;
7881;SDS011;3986;41.884;23.466;2023-01-23T07:37:04;76.90;;;58.83;;
7881;SDS011;3986;41.884;23.466;2023-01-23T07:39:30;89.20;;;58.47;;
7881;SDS011;3986;41.884;23.466;2023-01-23T07:41:57;77.10;;;60.63;;
7881;SDS011;3986;41.884;23.466;2023-01-23T07:44:24;66.47;;;56.93;;
7881;SDS011;3986;41.884;23.466;2023-01-23T07:46:51;78.17;;;65.70;;
7881;SDS011;3986;41.884;23.466;2023-01-23T07:49:19;76.47;;;58.53;;
7881;SDS011;3986;41.884;23.466;2023-01-23T07:51:46;98.77;;;68.20;;
7881;SDS011;3986;41.884;23.466;2023-01-23T07:54:13;69.57;;;48.63;;
7881;SDS011;3986;41.884;23.466;2023-01-23T07:56:40;72.53;;;50.67;;
7881;SDS011;3986;41.884;23.466;2023-01-23T07:59:07;71.33;;;52.57;;
7881;SDS011;3986;41.884;23.466;2023-01-23T08:01:33;54.80;;;45.73;;
7881;SDS011;3986;41.884;23.466;2023-01-23T08:04:00;113.97;;;70.90;;
7881;SDS011;3986;41.884;23.466;2023-01-23T08:06:29;103.23;;;77.47;;
7881;SDS011;3986;41.884;23.466;2023-01-23T08:08:56;118.50;;;86.07;;
7881;SDS011;3986;41.884;23.466;2023-01-23T08:11:23;88.60;;;55.07;;
7881;SDS011;3986;41.884;23.466;2023-01-23T08:13:50;58.37;;;31.10;;
7881;SDS011;3986;41.884;23.466;2023-01-23T08:16:17;45.10;;;22.77;;
7881;SDS011;3986;41.884;23.466;2023-01-23T08:18:44;35.80;;;20.30;;
7881;SDS011;3986;41.884;23.466;2023-01-23T08:21:11;43.10;;;22.83;;
7881;SDS011;3986;41.884;23.466;2023-01-23T08:23:39;40.27;;;21.53;;
7881;SDS011;3986;41.884;23.466;2023-01-23T08:26:07;59.47;;;22.23;;
7881;SDS011;3986;41.884;23.466;2023-01-23T08:28:34;35.23;;;17.93;;
7881;SDS011;3986;41.884;23.466;2023-01-23T08:31:02;33.33;;;20.03;;
7881;SDS011;3986;41.884;23.466;2023-01-23T08:33:32;83.37;;;31.67;;
7881;SDS011;3986;41.884;23.466;2023-01-23T08:35:59;55.07;;;33.00;;
7881;SDS011;3986;41.884;23.466;2023-01-23T08:38:26;45.23;;;22.43;;
7881;SDS011;3986;41.884;23.466;2023-01-23T08:40:56;43.87;;;18.87;;
7881;SDS011;3986;41.884;23.466;2023-01-23T08:43:24;56.40;;;38.63;;
7881;SDS011;3986;41.884;23.466;2023-01-23T08:45:52;95.73;;;45.37;;
7881;SDS011;3986;41.884;23.466;2023-01-23T08:48:21;55.93;;;28.67;;
7881;SDS011;3986;41.884;23.466;2023-01-23T08:50:49;61.43;;;29.53;;
7881;SDS011;3986;41.884;23.466;2023-01-23T08:53:18;62.83;;;31.70;;
7881;SDS011;3986;41.884;23.466;2023-01-23T08:55:45;56.70;;;29.33;;
7881;SDS011;3986;41.884;23.466;2023-01-23T08:58:13;53.57;;;30.17;;
7881;SDS011;3986;41.884;23.466;2023-01-23T09:00:40;58.67;;;33.00;;
7881;SDS011;3986;41.884;23.466;2023-01-23T09:03:08;45.40;;;25.60;;
7881;SDS011;3986;41.884;23.466;2023-01-23T09:05:35;42.57;;;21.73;;
7881;SDS011;3986;41.884;23.466;2023-01-23T09:08:02;99.20;;;41.60;;
7881;SDS011;3986;41.884;23.466;2023-01-23T09:10:29;59.47;;;38.03;;
7881;SDS011;3986;41.884;23.466;2023-01-23T09:12:56;46.97;;;32.37;;
7881;SDS011;3986;41.884;23.466;2023-01-23T09:15:24;35.87;;;29.97;;
7881;SDS011;3986;41.884;23.466;2023-01-23T09:17:51;34.47;;;21.53;;
7881;SDS011;3986;41.884;23.466;2023-01-23T09:20:18;49.53;;;22.03;;
7881;SDS011;3986;41.884;23.466;2023-01-23T09:22:45;36.77;;;20.03;;
7881;SDS011;3986;41.884;23.466;2023-01-23T09:25:12;45.47;;;32.63;;
7881;SDS011;3986;41.884;23.466;2023-01-23T09:27:39;46.40;;;31.00;;
7881;SDS011;3986;41.884;23.466;2023-01-23T09:30:06;51.57;;;27.30;;
7881;SDS011;3986;41.884;23.466;2023-01-23T09:32:35;37.53;;;23.00;;
7881;SDS011;3986;41.884;23.466;2023-01-23T09:35:02;48.63;;;24.43;;
7881;SDS011;3986;41.884;23.466;2023-01-23T09:37:30;42.50;;;21.77;;
7881;SDS011;3986;41.884;23.466;2023-01-23T09:40:18;31.57;;;17.90;;
7881;SDS011;3986;41.884;23.466;2023-01-23T09:42:48;38.83;;;24.27;;
7881;SDS011;3986;41.884;23.466;2023-01-23T09:45:17;46.57;;;26.27;;
7881;SDS011;3986;41.884;23.466;2023-01-23T09:47:49;58.60;;;34.90;;
7881;SDS011;3986;41.884;23.466;2023-01-23T09:50:20;61.97;;;32.83;;
7881;SDS011;3986;41.884;23.466;2023-01-23T09:52:52;38.93;;;22.80;;
7881;SDS011;3986;41.884;23.466;2023-01-23T09:55:26;33.83;;;23.43;;
7881;SDS011;3986;41.884;23.466;2023-01-23T09:58:00;36.90;;;19.53;;
7881;SDS011;3986;41.884;23.466;2023-01-23T10:00:30;23.57;;;16.33;;
7881;SDS011;3986;41.884;23.466;2023-01-23T10:03:01;37.10;;;16.00;;
7881;SDS011;3986;41.884;23.466;2023-01-23T10:05:38;59.93;;;17.93;;
7881;SDS011;3986;41.884;23.466;2023-01-23T10:08:14;58.53;;;23.67;;
7881;SDS011;3986;41.884;23.466;2023-01-23T10:10:50;29.67;;;17.30;;
7881;SDS011;3986;41.884;23.466;2023-01-23T10:13:21;20.77;;;15.27;;
7881;SDS011;3986;41.884;23.466;2023-01-23T10:16:04;51.93;;;17.47;;
7881;SDS011;3986;41.884;23.466;2023-01-23T10:18:48;59.03;;;18.93;;
7881;SDS011;3986;41.884;23.466;2023-01-23T10:21:23;70.33;;;20.23;;
7881;SDS011;3986;41.884;23.466;2023-01-23T10:23:58;33.00;;;17.70;;
7881;SDS011;3986;41.884;23.466;2023-01-23T10:26:29;31.00;;;15.63;;
7881;SDS011;3986;41.884;23.466;2023-01-23T10:29:00;31.47;;;15.40;;
7881;SDS011;3986;41.884;23.466;2023-01-23T10:31:36;38.13;;;16.80;;
7881;SDS011;3986;41.884;23.466;2023-01-23T10:34:12;49.67;;;16.70;;
7881;SDS011;3986;41.884;23.466;2023-01-23T10:36:57;33.53;;;16.63;;
7881;SDS011;3986;41.884;23.466;2023-01-23T10:39:31;38.97;;;16.10;;
7881;SDS011;3986;41.884;23.466;2023-01-23T10:42:08;42.73;;;16.90;;
7881;SDS011;3986;41.884;23.466;2023-01-23T10:44:37;61.97;;;22.80;;
7881;SDS011;3986;41.884;23.466;2023-01-23T10:47:10;39.70;;;21.07;;
7881;SDS011;3986;41.884;23.466;2023-01-23T10:49:44;90.40;;;25.20;;
7881;SDS011;3986;41.884;23.466;2023-01-23T10:52:27;53.27;;;31.83;;
7881;SDS011;3986;41.884;23.466;2023-01-23T10:54:57;49.50;;;33.27;;
7881;SDS011;3986;41.884;23.466;2023-01-23T10:57:25;52.20;;;34.43;;
7881;SDS011;3986;41.884;23.466;2023-01-23T10:59:54;67.77;;;33.13;;
7881;SDS011;3986;41.884;23.466;2023-01-23T11:02:28;60.07;;;33.00;;
7881;SDS011;3986;41.884;23.466;2023-01-23T11:04:57;61.10;;;39.80;;
7881;SDS011;3986;41.884;23.466;2023-01-23T11:07:26;66.87;;;41.13;;
7881;SDS011;3986;41.884;23.466;2023-01-23T11:09:55;57.80;;;34.23;;
7881;SDS011;3986;41.884;23.466;2023-01-23T11:12:24;51.50;;;29.60;;
7881;SDS011;3986;41.884;23.466;2023-01-23T11:17:37;47.83;;;29.87;;
7881;SDS011;3986;41.884;23.466;2023-01-23T11:20:19;84.60;;;30.17;;
7881;SDS011;3986;41.884;23.466;2023-01-23T11:22:58;52.03;;;29.50;;
7881;SDS011;3986;41.884;23.466;2023-01-23T11:25:28;44.67;;;28.43;;
7881;SDS011;3986;41.884;23.466;2023-01-23T11:27:56;39.97;;;24.20;;
7881;SDS011;3986;41.884;23.466;2023-01-23T11:30:39;40.83;;;23.83;;
7881;SDS011;3986;41.884;23.466;2023-01-23T11:33:13;54.67;;;26.47;;
7881;SDS011;3986;41.884;23.466;2023-01-23T11:35:54;84.87;;;32.60;;
7881;SDS011;3986;41.884;23.466;2023-01-23T11:38:30;55.97;;;30.63;;
7881;SDS011;3986;41.884;23.466;2023-01-23T11:41:04;58.60;;;32.63;;
7881;SDS011;3986;41.884;23.466;2023-01-23T11:43:36;57.00;;;34.80;;
7881;SDS011;3986;41.884;23.466;2023-01-23T11:46:11;57.10;;;36.13;;
7881;SDS011;3986;41.884;23.466;2023-01-23T11:48:52;72.33;;;38.00;;
7881;SDS011;3986;41.884;23.466;2023-01-23T11:51:31;79.13;;;32.87;;
7881;SDS011;3986;41.884;23.466;2023-01-23T11:54:03;52.57;;;35.17;;
7881;SDS011;3986;41.884;23.466;2023-01-23T11:56:46;65.53;;;36.50;;
7881;SDS011;3986;41.884;23.466;2023-01-23T11:59:33;59.93;;;37.77;;
7881;SDS011;3986;41.884;23.466;2023-01-23T12:02:21;59.87;;;34.73;;
7881;SDS011;3986;41.884;23.466;2023-01-23T12:08:15;54.50;;;31.07;;
7881;SDS011;3986;41.884;23.466;2023-01-23T12:10:52;60.73;;;31.50;;
7881;SDS011;3986;41.884;23.466;2023-01-23T12:13:35;70.80;;;31.23;;
7881;SDS011;3986;41.884;23.466;2023-01-23T12:16:19;56.87;;;32.17;;
7881;SDS011;3986;41.884;23.466;2023-01-23T12:18:53;40.27;;;25.40;;
7881;SDS011;3986;41.884;23.466;2023-01-23T12:21:32;42.43;;;26.60;;
7881;SDS011;3986;41.884;23.466;2023-01-23T12:24:10;43.80;;;27.67;;
7881;SDS011;3986;41.884;23.466;2023-01-23T12:26:48;54.20;;;30.50;;
7881;SDS011;3986;41.884;23.466;2023-01-23T12:32:24;88.07;;;44.87;;
7881;SDS011;3986;41.884;23.466;2023-01-23T12:35:02;60.43;;;36.53;;
7881;SDS011;3986;41.884;23.466;2023-01-23T12:37:42;49.80;;;31.60;;
7881;SDS011;3986;41.884;23.466;2023-01-23T12:40:23;56.87;;;31.90;;
7881;SDS011;3986;41.884;23.466;2023-01-23T12:42:54;34.53;;;22.37;;
7881;SDS011;3986;41.884;23.466;2023-01-23T12:45:27;43.77;;;22.20;;
7881;SDS011;3986;41.884;23.466;2023-01-23T12:47:57;63.03;;;25.07;;
7881;SDS011;3986;41.884;23.466;2023-01-23T12:50:33;39.63;;;24.53;;
7881;SDS011;3986;41.884;23.466;2023-01-23T12:53:04;50.73;;;30.03;;
7881;SDS011;3986;41.884;23.466;2023-01-23T12:55:36;62.60;;;33.60;;
7881;SDS011;3986;41.884;23.466;2023-01-23T12:58:10;41.13;;;27.13;;
7881;SDS011;3986;41.884;23.466;2023-01-23T13:00:44;32.43;;;19.13;;
7881;SDS011;3986;41.884;23.466;2023-01-23T13:03:26;37.30;;;23.40;;
7881;SDS011;3986;41.884;23.466;2023-01-23T13:06:07;57.17;;;29.93;;
7881;SDS011;3986;41.884;23.466;2023-01-23T13:08:48;47.23;;;29.00;;
7881;SDS011;3986;41.884;23.466;2023-01-23T13:11:21;71.47;;;32.03;;
7881;SDS011;3986;41.884;23.466;2023-01-23T13:14:15;52.73;;;32.83;;
7881;SDS011;3986;41.884;23.466;2023-01-23T13:16:46;45.47;;;28.67;;
7881;SDS011;3986;41.884;23.466;2023-01-23T13:19:19;40.03;;;26.13;;
7881;SDS011;3986;41.884;23.466;2023-01-23T13:22:15;37.03;;;24.03;;
7881;SDS011;3986;41.884;23.466;2023-01-23T13:24:49;41.73;;;23.17;;
7881;SDS011;3986;41.884;23.466;2023-01-23T13:27:39;34.73;;;21.50;;
7881;SDS011;3986;41.884;23.466;2023-01-23T13:36:30;49.37;;;27.03;;
7881;SDS011;3986;41.884;23.466;2023-01-23T13:47:54;40.07;;;25.27;;
7881;SDS011;3986;41.884;23.466;2023-01-23T13:50:56;55.80;;;34.30;;
7881;SDS011;3986;41.884;23.466;2023-01-23T13:53:30;50.50;;;36.00;;
7881;SDS011;3986;41.884;23.466;2023-01-23T13:56:15;73.40;;;41.93;;
7881;SDS011;3986;41.884;23.466;2023-01-23T13:59:02;60.00;;;41.53;;
7881;SDS011;3986;41.884;23.466;2023-01-23T14:01:34;88.10;;;41.37;;
7881;SDS011;3986;41.884;23.466;2023-01-23T14:04:24;66.97;;;40.93;;
7881;SDS011;3986;41.884;23.466;2023-01-23T14:07:21;46.93;;;34.37;;
7881;SDS011;3986;41.884;23.466;2023-01-23T14:10:17;89.37;;;46.50;;
7881;SDS011;3986;41.884;23.466;2023-01-23T14:12:46;59.50;;;37.97;;
7881;SDS011;3986;41.884;23.466;2023-01-23T14:15:18;50.87;;;32.83;;
7881;SDS011;3986;41.884;23.466;2023-01-23T14:18:10;42.90;;;23.47;;
7881;SDS011;3986;41.884;23.466;2023-01-23T14:20:44;54.33;;;32.93;;
7881;SDS011;3986;41.884;23.466;2023-01-23T14:23:16;55.93;;;38.40;;
7881;SDS011;3986;41.884;23.466;2023-01-23T14:25:50;56.40;;;38.10;;
7881;SDS011;3986;41.884;23.466;2023-01-23T14:28:17;78.27;;;48.80;;
7881;SDS011;3986;41.884;23.466;2023-01-23T14:30:57;117.97;;;51.57;;
7881;SDS011;3986;41.884;23.466;2023-01-23T14:33:27;61.77;;;39.57;;
7881;SDS011;3986;41.884;23.466;2023-01-23T14:35:54;62.40;;;37.80;;
7881;SDS011;3986;41.884;23.466;2023-01-23T14:38:26;71.33;;;41.63;;
7881;SDS011;3986;41.884;23.466;2023-01-23T14:40:54;58.53;;;38.00;;
7881;SDS011;3986;41.884;23.466;2023-01-23T14:43:23;96.33;;;43.33;;
7881;SDS011;3986;41.884;23.466;2023-01-23T14:45:55;72.73;;;44.73;;
7881;SDS011;3986;41.884;23.466;2023-01-23T14:48:27;58.37;;;43.60;;
7881;SDS011;3986;41.884;23.466;2023-01-23T14:51:00;42.20;;;34.63;;
7881;SDS011;3986;41.884;23.466;2023-01-23T14:53:28;43.70;;;34.97;;
7881;SDS011;3986;41.884;23.466;2023-01-23T14:55:55;50.50;;;34.50;;
7881;SDS011;3986;41.884;23.466;2023-01-23T14:58:23;67.77;;;39.67;;
7881;SDS011;3986;41.884;23.466;2023-01-23T15:00:52;67.63;;;43.90;;
7881;SDS011;3986;41.884;23.466;2023-01-23T15:03:41;59.57;;;39.47;;
7881;SDS011;3986;41.884;23.466;2023-01-23T15:06:11;50.33;;;36.77;;
7881;SDS011;3986;41.884;23.466;2023-01-23T15:08:40;60.33;;;39.57;;
7881;SDS011;3986;41.884;23.466;2023-01-23T15:11:07;113.53;;;61.60;;
7881;SDS011;3986;41.884;23.466;2023-01-23T15:13:44;80.97;;;59.60;;
7881;SDS011;3986;41.884;23.466;2023-01-23T15:16:16;70.80;;;52.13;;
7881;SDS011;3986;41.884;23.466;2023-01-23T15:18:54;62.83;;;38.67;;
7881;SDS011;3986;41.884;23.466;2023-01-23T15:21:25;56.77;;;36.83;;
7881;SDS011;3986;41.884;23.466;2023-01-23T15:24:02;67.20;;;45.07;;